createdAt,value
2019-03-19T00:01:57.733Z,7.33
2019-03-19T00:04:26.743Z,9.03
2019-03-19T00:06:55.764Z,7.63
2019-03-19T00:09:24.817Z,10.13
2019-03-19T00:11:53.857Z,11.80
2019-03-19T00:14:22.902Z,9.17
2019-03-19T00:16:51.859Z,8.83
2019-03-19T00:19:22.556Z,11.00
2019-03-19T00:21:51.766Z,11.70
2019-03-19T00:24:20.853Z,9.63
2019-03-19T00:26:49.915Z,7.33
2019-03-19T00:29:18.946Z,22.93
2019-03-19T00:31:48.028Z,9.53
2019-03-19T00:34:17.066Z,8.53
2019-03-19T00:36:46.126Z,9.70
2019-03-19T00:39:15.150Z,10.30
2019-03-19T00:41:44.174Z,12.23
2019-03-19T00:44:13.197Z,16.30
2019-03-19T00:46:42.235Z,12.03
2019-03-19T00:49:11.206Z,11.87
2019-03-19T00:51:40.279Z,9.77
2019-03-19T00:54:09.306Z,11.50
2019-03-19T00:56:38.304Z,8.03
2019-03-19T00:59:08.689Z,8.67
2019-03-19T01:01:38.817Z,7.60
2019-03-19T01:04:07.982Z,11.40
2019-03-19T01:06:36.994Z,10.57
2019-03-19T01:09:07.399Z,11.97
2019-03-19T01:11:36.393Z,11.60
2019-03-19T01:14:05.425Z,10.53
2019-03-19T01:16:34.427Z,9.37
2019-03-19T01:19:03.509Z,12.23
2019-03-19T01:21:32.551Z,11.87
2019-03-19T01:24:01.680Z,7.87
2019-03-19T01:26:30.739Z,9.50
2019-03-19T01:28:59.810Z,10.83
2019-03-19T01:31:28.838Z,16.07
2019-03-19T01:33:57.849Z,9.23
2019-03-19T01:36:26.863Z,5.37
2019-03-19T01:38:55.970Z,9.20
2019-03-19T01:41:24.898Z,10.63
2019-03-19T01:43:53.899Z,10.53
2019-03-19T01:46:22.954Z,9.77
2019-03-19T01:48:52.014Z,7.80
2019-03-19T01:51:20.976Z,8.33
2019-03-19T01:53:50.020Z,8.03
2019-03-19T01:56:19.097Z,8.97
2019-03-19T01:58:48.158Z,8.10
2019-03-19T02:01:18.401Z,7.47
2019-03-19T02:03:47.477Z,9.23
2019-03-19T02:06:16.522Z,7.27
2019-03-19T02:08:45.606Z,6.83
2019-03-19T02:11:14.646Z,8.87
2019-03-19T02:13:43.683Z,8.27
2019-03-19T02:16:12.784Z,8.40
2019-03-19T02:18:41.801Z,5.93
2019-03-19T02:21:10.865Z,9.30
2019-03-19T02:23:39.939Z,10.77
2019-03-19T02:26:16.388Z,7.30
2019-03-19T02:28:39.730Z,6.73
2019-03-19T02:31:08.856Z,6.70
2019-03-19T02:33:37.939Z,7.07
2019-03-19T02:36:06.944Z,6.93
2019-03-19T02:38:55.161Z,3.87
2019-03-19T02:41:24.204Z,6.33
2019-03-19T02:43:53.247Z,6.13
2019-03-19T02:46:22.285Z,5.67
2019-03-19T02:48:51.317Z,11.27
2019-03-19T02:51:20.305Z,5.87
2019-03-19T02:53:49.325Z,8.67
2019-03-19T02:56:31.822Z,5.77
2019-03-19T02:58:49.141Z,7.17
2019-03-19T03:01:18.186Z,8.77
2019-03-19T03:03:47.230Z,8.67
2019-03-19T03:06:16.300Z,6.87
2019-03-19T03:08:45.315Z,6.10
2019-03-19T03:11:14.606Z,6.43
2019-03-19T03:13:43.655Z,4.93
2019-03-19T03:16:12.775Z,7.70
2019-03-19T03:18:41.854Z,8.87
2019-03-19T03:21:10.878Z,7.97
2019-03-19T03:23:39.897Z,9.07
2019-03-19T03:26:09.040Z,5.17
2019-03-19T03:28:38.134Z,7.67
2019-03-19T03:31:07.240Z,9.10
2019-03-19T03:33:36.375Z,6.90
2019-03-19T03:36:05.388Z,8.93
2019-03-19T03:38:34.367Z,6.50
2019-03-19T03:41:05.191Z,7.57
2019-03-19T03:43:34.144Z,8.10
2019-03-19T03:46:03.199Z,8.57
2019-03-19T03:48:43.957Z,8.63
2019-03-19T03:51:13.010Z,4.40
2019-03-19T03:53:42.043Z,8.80
2019-03-19T03:56:11.062Z,6.20
2019-03-19T03:58:40.212Z,7.03
2019-03-19T04:01:09.353Z,4.73
2019-03-19T04:03:38.427Z,9.07
2019-03-19T04:06:07.437Z,9.27
2019-03-19T04:08:36.485Z,7.07
2019-03-19T04:11:05.548Z,7.33
2019-03-19T04:13:34.677Z,6.10
2019-03-19T04:16:03.744Z,6.50
2019-03-19T04:18:32.855Z,5.33
2019-03-19T04:21:01.893Z,7.20
2019-03-19T04:23:30.919Z,5.53
2019-03-19T04:25:59.961Z,8.33
2019-03-19T04:28:29.085Z,4.97
2019-03-19T04:30:58.086Z,6.47
2019-03-19T04:33:27.197Z,6.33
2019-03-19T04:35:56.257Z,6.73
2019-03-19T04:38:25.278Z,10.07
2019-03-19T04:40:54.310Z,4.53
2019-03-19T04:43:23.466Z,6.80
2019-03-19T04:45:52.610Z,9.63
2019-03-19T04:48:21.544Z,8.83
2019-03-19T04:50:50.581Z,5.57
2019-03-19T04:53:19.609Z,5.83
2019-03-19T04:55:48.595Z,5.37
2019-03-19T04:58:17.603Z,6.87
2019-03-19T05:00:46.675Z,6.17
2019-03-19T05:03:15.717Z,10.40
2019-03-19T05:05:44.726Z,6.43
2019-03-19T05:08:13.813Z,7.50
2019-03-19T05:10:42.998Z,5.97
2019-03-19T05:13:12.027Z,7.03
2019-03-19T05:15:41.039Z,8.30
2019-03-19T05:18:10.102Z,5.50
2019-03-19T05:20:39.188Z,7.17
2019-03-19T05:23:08.259Z,7.17
2019-03-19T05:25:37.317Z,5.33
2019-03-19T05:28:06.476Z,6.50
2019-03-19T05:30:35.603Z,9.97
2019-03-19T05:33:04.709Z,6.30
2019-03-19T05:35:33.787Z,6.00
2019-03-19T05:38:03.114Z,7.70
2019-03-19T05:40:32.173Z,6.43
2019-03-19T05:43:01.351Z,7.93
2019-03-19T05:45:30.422Z,8.80
2019-03-19T05:47:59.880Z,12.70
2019-03-19T05:50:28.933Z,17.33
2019-03-19T05:52:58.001Z,13.07
2019-03-19T05:55:27.055Z,13.73
2019-03-19T05:57:56.140Z,10.77
2019-03-19T06:00:26.604Z,13.07
2019-03-19T06:02:55.781Z,16.10
2019-03-19T06:05:24.838Z,10.23
2019-03-19T06:07:53.899Z,11.57
2019-03-19T06:10:22.905Z,14.97
2019-03-19T06:12:52.059Z,13.07
2019-03-19T06:15:21.105Z,14.30
2019-03-19T06:17:50.122Z,12.73
2019-03-19T06:20:19.166Z,18.20
2019-03-19T06:22:48.226Z,10.23
2019-03-19T06:25:17.318Z,13.67
2019-03-19T06:27:46.322Z,9.70
2019-03-19T06:30:16.000Z,13.77
2019-03-19T06:32:45.070Z,13.00
2019-03-19T06:35:14.091Z,12.30
2019-03-19T06:37:43.143Z,12.10
2019-03-19T06:40:13.154Z,9.97
2019-03-19T06:42:43.358Z,9.37
2019-03-19T06:45:13.547Z,11.30
2019-03-19T06:47:42.601Z,15.30
2019-03-19T06:50:12.176Z,10.97
2019-03-19T06:52:41.302Z,8.87
2019-03-19T06:55:10.919Z,10.60
2019-03-19T06:57:40.070Z,8.47
2019-03-19T07:00:17.406Z,11.20
2019-03-19T07:02:46.463Z,10.00
2019-03-19T07:05:16.743Z,11.90
2019-03-19T07:07:45.828Z,8.93
2019-03-19T07:10:14.870Z,10.87
2019-03-19T07:12:43.939Z,10.57
2019-03-19T07:15:13.770Z,10.23
2019-03-19T07:17:42.859Z,10.10
2019-03-19T07:20:13.245Z,9.97
2019-03-19T07:22:42.353Z,8.83
2019-03-19T07:25:11.454Z,8.87
2019-03-19T07:27:40.567Z,10.73
2019-03-19T07:30:12.148Z,8.23
2019-03-19T07:32:41.198Z,9.43
2019-03-19T07:35:10.306Z,10.50
2019-03-19T07:37:39.381Z,8.97
2019-03-19T07:40:09.373Z,11.00
2019-03-19T07:42:38.401Z,11.03
2019-03-19T07:45:09.346Z,8.77
2019-03-19T07:47:38.405Z,19.30
2019-03-19T07:50:08.642Z,11.57
2019-03-19T07:52:56.844Z,12.30
2019-03-19T07:55:25.932Z,18.57
2019-03-19T07:57:54.975Z,20.23
2019-03-19T08:00:23.945Z,14.63
2019-03-19T08:02:52.966Z,21.73
2019-03-19T08:05:32.213Z,22.50
2019-03-19T08:07:52.806Z,25.17
2019-03-19T08:10:21.779Z,26.10
2019-03-19T08:12:50.770Z,22.57
2019-03-19T08:15:19.816Z,21.50
2019-03-19T08:17:48.874Z,23.97
2019-03-19T08:20:18.177Z,27.83
2019-03-19T08:22:47.331Z,27.60
2019-03-19T08:25:16.495Z,30.57
2019-03-19T08:27:45.506Z,30.60
2019-03-19T08:30:15.849Z,33.10
2019-03-19T08:32:44.912Z,30.40
2019-03-19T08:35:13.984Z,33.83
2019-03-19T08:38:02.192Z,28.77
2019-03-19T08:40:31.204Z,38.43
2019-03-19T08:43:00.254Z,34.47
2019-03-19T08:45:29.326Z,29.60
2019-03-19T08:47:58.909Z,34.20
2019-03-19T08:50:27.978Z,29.03
2019-03-19T08:52:57.045Z,23.73
2019-03-19T08:55:26.129Z,32.57
2019-03-19T08:57:55.197Z,25.07
2019-03-19T09:00:24.365Z,31.03
2019-03-19T09:02:53.369Z,38.07
2019-03-19T09:05:22.448Z,33.30
2019-03-19T09:07:51.524Z,31.87
2019-03-19T09:10:20.580Z,37.40
2019-03-19T09:12:49.735Z,37.50
2019-03-19T09:15:18.797Z,36.17
2019-03-19T09:17:47.814Z,35.17
2019-03-19T09:20:16.881Z,37.27
2019-03-19T09:22:45.909Z,34.40
2019-03-19T09:25:14.994Z,33.87
2019-03-19T09:27:44.056Z,35.97
2019-03-19T09:30:14.590Z,39.67
2019-03-19T09:32:43.642Z,36.30
2019-03-19T09:35:12.677Z,40.23
2019-03-19T09:37:46.301Z,31.67
2019-03-19T09:40:13.626Z,33.17
2019-03-19T09:42:42.680Z,38.07
2019-03-19T09:45:12.158Z,30.20
2019-03-19T09:47:41.210Z,41.03
2019-03-19T09:50:11.248Z,39.73
2019-03-19T09:52:40.328Z,38.57
2019-03-19T09:55:09.954Z,32.50
2019-03-19T09:57:38.919Z,34.90
2019-03-19T10:00:09.983Z,27.10
2019-03-19T10:02:39.018Z,33.40
2019-03-19T10:05:08.043Z,32.47
2019-03-19T10:07:37.040Z,29.87
2019-03-19T10:10:06.838Z,27.57
2019-03-19T10:12:35.806Z,31.97
2019-03-19T10:15:05.078Z,26.97
2019-03-19T10:17:34.099Z,28.70
2019-03-19T10:20:03.273Z,30.23
2019-03-19T10:22:32.312Z,25.17
2019-03-19T10:25:01.346Z,25.23
2019-03-19T10:27:30.367Z,22.03
2019-03-19T10:29:59.365Z,25.43
2019-03-19T10:32:28.386Z,26.57
2019-03-19T10:34:57.446Z,22.60
2019-03-19T10:37:26.487Z,24.03
2019-03-19T10:39:55.485Z,26.63
2019-03-19T10:42:24.465Z,23.00
2019-03-19T10:44:53.510Z,19.77
2019-03-19T10:47:22.649Z,23.77
2019-03-19T10:49:51.695Z,21.37
2019-03-19T10:52:20.737Z,16.27
2019-03-19T10:54:49.834Z,19.63
2019-03-19T10:57:18.840Z,16.87
2019-03-19T10:59:49.557Z,17.07
2019-03-19T11:02:18.634Z,14.17
2019-03-19T11:04:47.688Z,16.43
2019-03-19T11:07:16.758Z,18.67
2019-03-19T11:09:45.830Z,12.27
2019-03-19T11:12:14.895Z,16.80
2019-03-19T11:14:43.867Z,13.17
2019-03-19T11:17:12.876Z,17.33
2019-03-19T11:19:41.950Z,11.37
2019-03-19T11:22:10.965Z,14.60
2019-03-19T11:24:40.023Z,11.90
2019-03-19T11:27:09.035Z,12.97
2019-03-19T11:29:38.055Z,9.60
2019-03-19T11:32:07.123Z,10.40
2019-03-19T11:34:36.193Z,8.87
2019-03-19T11:37:05.344Z,13.60
2019-03-19T11:39:34.430Z,8.93
2019-03-19T11:42:03.469Z,13.00
2019-03-19T11:44:32.513Z,8.70
2019-03-19T11:47:01.539Z,10.70
2019-03-19T11:49:30.504Z,11.80
2019-03-19T11:51:59.581Z,6.27
2019-03-19T11:54:28.589Z,9.43
2019-03-19T11:56:57.622Z,8.53
2019-03-19T11:59:26.734Z,10.23
2019-03-19T12:01:55.854Z,9.47
2019-03-19T12:04:24.901Z,8.80
2019-03-19T12:06:53.967Z,9.07
2019-03-19T12:09:23.032Z,8.83
2019-03-19T12:11:52.090Z,7.43
2019-03-19T12:14:21.135Z,7.00
2019-03-19T12:16:50.201Z,9.53
2019-03-19T12:19:19.222Z,9.43
2019-03-19T12:21:48.257Z,6.80
2019-03-19T12:24:17.291Z,7.43
2019-03-19T12:26:46.403Z,8.23
2019-03-19T12:29:15.402Z,8.20
2019-03-19T12:31:44.476Z,11.07
2019-03-19T12:34:13.495Z,8.77
2019-03-19T12:36:42.487Z,6.93
2019-03-19T12:39:11.574Z,6.73
2019-03-19T12:41:40.633Z,8.43
2019-03-19T12:44:09.694Z,7.70
2019-03-19T12:46:38.782Z,6.23
2019-03-19T12:49:07.961Z,6.30
2019-03-19T12:51:36.968Z,8.03
2019-03-19T12:54:05.993Z,7.83
2019-03-19T12:56:37.738Z,6.17
2019-03-19T12:59:06.679Z,7.07
2019-03-19T13:01:35.952Z,6.40
2019-03-19T13:04:05.096Z,8.33
2019-03-19T13:06:34.323Z,6.77
2019-03-19T13:09:03.390Z,8.47
2019-03-19T13:11:32.476Z,5.10
2019-03-19T13:14:01.504Z,8.20
2019-03-19T13:16:30.509Z,5.27
2019-03-19T13:18:59.507Z,5.80
2019-03-19T13:21:28.517Z,6.60
2019-03-19T13:23:57.538Z,7.50
2019-03-19T13:26:26.617Z,5.23
2019-03-19T13:28:55.656Z,6.57
2019-03-19T13:31:24.698Z,4.70
2019-03-19T13:33:53.766Z,5.33
2019-03-19T13:36:22.777Z,5.03
2019-03-19T13:38:51.782Z,6.37
2019-03-19T13:41:20.758Z,6.83
2019-03-19T13:43:49.743Z,4.50
2019-03-19T13:46:18.753Z,7.10
2019-03-19T13:48:47.859Z,7.13
2019-03-19T13:51:16.942Z,8.27
2019-03-19T13:53:45.982Z,7.40
2019-03-19T13:56:16.037Z,3.20
2019-03-19T13:58:45.083Z,8.73
2019-03-19T14:01:14.278Z,7.47
2019-03-19T14:03:43.306Z,4.70
2019-03-19T14:06:12.385Z,4.33
2019-03-19T14:08:41.383Z,6.00
2019-03-19T14:11:10.375Z,7.33
2019-03-19T14:13:39.381Z,4.80
2019-03-19T14:16:08.319Z,7.10
2019-03-19T14:18:37.357Z,6.73
2019-03-19T14:21:06.380Z,4.87
2019-03-19T14:23:35.476Z,4.97
2019-03-19T14:26:04.601Z,12.50
2019-03-19T14:28:33.650Z,5.23
2019-03-19T14:31:08.576Z,4.03
2019-03-19T14:33:33.366Z,6.73
2019-03-19T14:36:02.415Z,10.83
2019-03-19T14:38:31.456Z,7.60
2019-03-19T14:41:00.461Z,6.90
2019-03-19T14:43:29.554Z,4.00
2019-03-19T14:45:58.638Z,4.17
2019-03-19T14:48:27.646Z,8.60
2019-03-19T14:50:56.754Z,4.37
2019-03-19T14:53:25.845Z,7.07
2019-03-19T14:55:54.962Z,6.97
2019-03-19T14:58:23.977Z,4.40
2019-03-19T15:00:52.979Z,5.20
2019-03-19T15:03:21.974Z,7.17
2019-03-19T15:05:50.979Z,6.40
2019-03-19T15:08:20.070Z,7.33
2019-03-19T15:10:49.155Z,6.93
2019-03-19T15:13:18.188Z,5.77
2019-03-19T15:15:47.286Z,5.10
2019-03-19T15:18:16.255Z,5.40
2019-03-19T15:20:45.334Z,8.77
2019-03-19T15:23:14.421Z,6.97
2019-03-19T15:25:43.455Z,3.57
2019-03-19T15:28:12.463Z,6.77
2019-03-19T15:30:41.476Z,8.57
2019-03-19T15:33:10.546Z,11.27
2019-03-19T15:35:39.541Z,7.93
2019-03-19T15:38:08.615Z,5.73
2019-03-19T15:40:37.727Z,5.47
2019-03-19T15:43:06.774Z,6.43
2019-03-19T15:45:38.622Z,6.80
2019-03-19T15:48:07.762Z,8.20
2019-03-19T15:50:40.023Z,8.27
2019-03-19T15:53:09.102Z,4.67
2019-03-19T15:55:39.326Z,8.33
2019-03-19T15:58:08.383Z,6.27
2019-03-19T16:00:37.616Z,6.97
2019-03-19T16:03:06.673Z,5.40
2019-03-19T16:05:37.809Z,5.73
2019-03-19T16:08:06.862Z,7.23
2019-03-19T16:10:35.933Z,8.60
2019-03-19T16:13:04.991Z,10.53
2019-03-19T16:15:34.143Z,9.13
2019-03-19T16:18:03.189Z,11.63
2019-03-19T16:20:32.274Z,8.53
2019-03-19T16:23:01.299Z,6.17
2019-03-19T16:25:30.299Z,6.27
2019-03-19T16:27:59.352Z,6.40
2019-03-19T16:30:28.487Z,7.27
2019-03-19T16:32:57.645Z,4.63
2019-03-19T16:35:26.699Z,7.87
2019-03-19T16:37:55.730Z,8.43
2019-03-19T16:40:24.799Z,7.27
2019-03-19T16:42:53.792Z,9.03
2019-03-19T16:45:22.807Z,9.50
2019-03-19T16:47:51.881Z,11.73
2019-03-19T16:50:20.894Z,7.13
2019-03-19T16:52:49.914Z,8.10
2019-03-19T16:55:18.936Z,5.43
2019-03-19T16:57:47.985Z,6.63
2019-03-19T17:00:17.630Z,10.63
2019-03-19T17:02:46.717Z,7.37
2019-03-19T17:05:16.343Z,8.20
2019-03-19T17:07:45.341Z,10.93
2019-03-19T17:10:14.946Z,7.90
2019-03-19T17:12:43.946Z,12.37
2019-03-19T17:15:13.543Z,14.27
2019-03-19T17:17:44.791Z,7.00
2019-03-19T17:20:15.770Z,9.63
2019-03-19T17:22:44.890Z,7.33
2019-03-19T17:25:14.955Z,5.87
2019-03-19T17:27:44.063Z,8.43
2019-03-19T17:30:17.271Z,8.37
2019-03-19T17:32:46.440Z,6.87
2019-03-19T17:35:15.533Z,8.90
2019-03-19T17:37:44.590Z,6.00
2019-03-19T17:40:15.165Z,8.10
2019-03-19T17:42:44.232Z,7.60
2019-03-19T17:45:13.335Z,7.80
2019-03-19T17:47:42.457Z,8.93
2019-03-19T17:50:48.748Z,8.57
2019-03-19T17:53:17.910Z,5.57
2019-03-19T17:55:46.974Z,8.63
2019-03-19T17:58:18.421Z,6.50
2019-03-19T18:00:49.093Z,10.00
2019-03-19T18:03:18.124Z,8.83
2019-03-19T18:05:47.201Z,6.93
2019-03-19T18:08:16.369Z,8.77
2019-03-19T18:10:45.445Z,7.80
2019-03-19T18:13:14.510Z,8.70
2019-03-19T18:15:43.624Z,5.83
2019-03-19T18:18:24.220Z,6.73
2019-03-19T18:20:53.249Z,8.07
2019-03-19T18:23:22.314Z,8.93
2019-03-19T18:25:51.308Z,8.53
2019-03-19T18:28:20.333Z,6.63
2019-03-19T18:30:49.382Z,7.33
2019-03-19T18:33:18.397Z,12.07
2019-03-19T18:35:47.423Z,4.40
2019-03-19T18:38:16.453Z,6.17
2019-03-19T18:40:45.521Z,10.33
2019-03-19T18:43:14.561Z,8.80
2019-03-19T18:45:43.541Z,8.57
2019-03-19T18:48:12.532Z,9.07
2019-03-19T18:50:41.569Z,8.00
2019-03-19T18:53:10.582Z,9.83
2019-03-19T18:55:39.604Z,7.40
2019-03-19T18:58:08.599Z,9.93
2019-03-19T19:00:37.632Z,8.30
2019-03-19T19:03:06.779Z,6.27
2019-03-19T19:05:35.827Z,6.40
2019-03-19T19:08:04.922Z,12.47
2019-03-19T19:10:33.983Z,8.77
2019-03-19T19:13:03.098Z,10.97
2019-03-19T19:15:32.264Z,6.57
2019-03-19T19:18:01.420Z,9.77
2019-03-19T19:20:30.467Z,8.93
2019-03-19T19:22:59.537Z,10.33
2019-03-19T19:25:28.596Z,9.37
2019-03-19T19:27:57.658Z,7.03
2019-03-19T19:30:26.694Z,9.03
2019-03-19T19:33:01.642Z,9.97
2019-03-19T19:35:26.614Z,9.83
2019-03-19T19:37:55.716Z,10.73
2019-03-19T19:40:24.783Z,9.83
2019-03-19T19:42:53.798Z,12.70
2019-03-19T19:45:22.854Z,10.90
2019-03-19T19:47:51.949Z,10.43
2019-03-19T19:50:20.990Z,9.37
2019-03-19T19:52:50.267Z,11.47
2019-03-19T19:55:19.351Z,15.13
2019-03-19T19:57:48.501Z,9.40
2019-03-19T20:00:17.594Z,9.67
2019-03-19T20:02:46.674Z,12.13
2019-03-19T20:05:15.840Z,12.70
2019-03-19T20:07:44.953Z,9.20
2019-03-19T20:10:15.740Z,11.03
2019-03-19T20:12:44.808Z,7.30
2019-03-19T20:15:13.938Z,7.53
2019-03-19T20:17:43.004Z,9.67
2019-03-19T20:20:13.923Z,7.93
2019-03-19T20:22:44.787Z,8.17
2019-03-19T20:25:14.019Z,8.73
2019-03-19T20:27:43.072Z,8.57
2019-03-19T20:30:17.017Z,8.13
2019-03-19T20:32:46.008Z,9.70
2019-03-19T20:35:14.988Z,7.57
2019-03-19T20:37:44.178Z,11.93
2019-03-19T20:40:13.564Z,8.87
2019-03-19T20:42:42.781Z,7.23
2019-03-19T20:45:12.216Z,11.30
2019-03-19T20:47:41.249Z,8.30
2019-03-19T20:50:13.188Z,9.17
2019-03-19T20:52:42.270Z,8.00
2019-03-19T20:55:11.352Z,8.90
2019-03-19T20:57:40.417Z,6.37
2019-03-19T21:00:11.771Z,9.90
2019-03-19T21:02:40.802Z,8.97
2019-03-19T21:05:09.834Z,9.27
2019-03-19T21:07:38.815Z,7.10
2019-03-19T21:10:09.413Z,6.73
2019-03-19T21:12:38.496Z,7.90
2019-03-19T21:15:08.033Z,9.70
2019-03-19T21:17:37.197Z,8.90
2019-03-19T21:20:06.247Z,8.47
2019-03-19T21:22:35.389Z,10.23
2019-03-19T21:25:04.495Z,8.93
2019-03-19T21:27:33.553Z,6.63
2019-03-19T21:30:02.593Z,9.33
2019-03-19T21:32:31.759Z,8.20
2019-03-19T21:35:00.850Z,7.53
2019-03-19T21:37:29.891Z,11.47
2019-03-19T21:39:58.911Z,7.70
2019-03-19T21:42:27.989Z,9.47
2019-03-19T21:44:57.046Z,10.13
2019-03-19T21:47:26.126Z,10.23
2019-03-19T21:49:55.194Z,9.33
2019-03-19T21:52:24.231Z,10.43
2019-03-19T21:54:53.283Z,9.73
2019-03-19T21:57:22.323Z,10.43
2019-03-19T21:59:51.304Z,12.60
2019-03-19T22:02:20.475Z,9.63
2019-03-19T22:04:49.489Z,12.00
2019-03-19T22:07:18.510Z,11.20
2019-03-19T22:09:47.576Z,11.20
2019-03-19T22:12:16.594Z,13.20
2019-03-19T22:14:45.636Z,12.30
2019-03-19T22:17:14.694Z,9.30
2019-03-19T22:19:43.710Z,9.50
2019-03-19T22:22:12.780Z,10.60
2019-03-19T22:24:41.835Z,10.50
2019-03-19T22:27:10.889Z,12.10
2019-03-19T22:29:39.923Z,11.37
2019-03-19T22:32:09.077Z,10.70
2019-03-19T22:34:38.093Z,11.63
2019-03-19T22:37:07.121Z,11.57
2019-03-19T22:39:36.154Z,14.67
2019-03-19T22:42:05.173Z,13.27
2019-03-19T22:44:34.234Z,12.83
2019-03-19T22:47:03.239Z,10.40
2019-03-19T22:49:32.327Z,13.30
2019-03-19T22:52:01.356Z,11.87
2019-03-19T22:54:30.396Z,13.53
2019-03-19T22:56:59.449Z,11.73
2019-03-19T22:59:28.585Z,10.47
2019-03-19T23:01:57.592Z,12.53
2019-03-19T23:04:27.421Z,15.03
2019-03-19T23:06:56.664Z,11.93
2019-03-19T23:09:25.721Z,12.73
2019-03-19T23:11:54.718Z,10.60
2019-03-19T23:14:23.690Z,15.83
2019-03-19T23:16:52.746Z,14.47
2019-03-19T23:19:21.703Z,10.80
2019-03-19T23:21:50.730Z,14.53
2019-03-19T23:24:19.886Z,13.50
2019-03-19T23:26:49.092Z,16.50
2019-03-19T23:29:18.121Z,13.10
2019-03-19T23:31:47.213Z,14.93
2019-03-19T23:34:16.283Z,12.07
2019-03-19T23:36:45.304Z,12.53
2019-03-19T23:39:14.313Z,12.57
2019-03-19T23:41:43.341Z,15.10
2019-03-19T23:44:12.501Z,15.73
2019-03-19T23:46:42.435Z,15.03
2019-03-19T23:49:11.460Z,15.03
2019-03-19T23:51:40.478Z,15.37
2019-03-19T23:54:09.501Z,14.67
2019-03-19T23:56:38.535Z,15.13
2019-03-19T23:59:07.595Z,10.90
